Time;durP1;ratioP1;P1;durP2;ratioP2;P2;SDS_P1;SDS_P2;PMS_P1;PMS_P2;Temp;Humidity;BMP_temperature;BMP_pressure;BME280_temperature;BME280_humidity;BME280_pressure;Samples;Min_cycle;Max_cycle;Signal;HPM_P1;HPM_P2
2021/06/16 00:00:25;;;;;;;20.27;18.30;;;;;;;13.40;nan;99103.44;2105840;28;20229;-75
2021/06/16 00:01:25;;;;;;;23.25;21.02;;;;;;;13.39;nan;99139.38;2105942;28;20225;-74
2021/06/16 00:02:27;;;;;;;25.30;21.30;;;;;;;13.37;nan;99104.84;2105746;28;20241;-75
2021/06/16 00:03:28;;;;;;;23.80;21.38;;;;;;;13.38;nan;99116.34;2105985;28;20225;-75
2021/06/16 00:04:31;;;;;;;20.67;18.77;;;;;;;;;;2106595;28;20659;-75
2021/06/16 00:05:32;;;;;;;21.45;19.45;;;;;;;13.29;nan;99113.66;2106719;28;20221;-75
2021/06/16 00:06:34;;;;;;;22.10;18.63;;;;;;;13.27;nan;99094.41;2104966;28;20737;-74
2021/06/16 00:07:34;;;;;;;26.88;20.67;;;;;;;;;;2105907;28;20226;-75
2021/06/16 00:08:36;;;;;;;23.30;20.47;;;;;;;13.21;nan;99117.91;2105919;28;20316;-74
2021/06/16 00:09:37;;;;;;;22.40;20.05;;;;;;;13.22;nan;99091.91;2105645;28;20320;-74
2021/06/16 00:10:39;;;;;;;25.10;22.57;;;;;;;;;;2105566;28;20745;-76
2021/06/16 00:11:39;;;;;;;26.67;21.70;;;;;;;;;;2105302;28;20761;-75
2021/06/16 00:12:41;;;;;;;25.40;22.70;;;;;;;13.25;nan;99123.44;2105842;28;20596;-75
2021/06/16 00:13:42;;;;;;;27.80;23.17;;;;;;;13.27;nan;99121.22;2114068;28;20593;-75
2021/06/16 00:14:44;;;;;;;25.43;22.53;;;;;;;;;;2105646;28;20245;-75
2021/06/16 00:15:45;;;;;;;28.92;21.08;;;;;;;13.26;nan;99114.28;2105618;28;20217;-75
2021/06/16 00:16:47;;;;;;;25.50;22.83;;;;;;;13.16;nan;99109.19;2105779;28;20253;-75
2021/06/16 00:17:47;;;;;;;25.70;21.90;;;;;;;;;;2105901;28;20622;-75
2021/06/16 00:18:49;;;;;;;25.07;22.23;;;;;;;13.23;nan;99104.19;2106587;28;20256;-75
2021/06/16 00:19:51;;;;;;;34.42;22.30;;;;;;;13.19;nan;99195.09;2106542;28;20221;-75
2021/06/16 00:20:53;;;;;;;22.23;19.92;;;;;;;13.17;nan;99175.84;2106440;28;20221;-74
2021/06/16 00:21:54;;;;;;;23.85;20.98;;;;;;;13.16;nan;99114.53;2106104;28;20221;-75
2021/06/16 00:22:56;;;;;;;23.70;21.30;;;;;;;13.18;nan;99155.19;2105672;28;20253;-75
2021/06/16 00:23:56;;;;;;;24.15;21.05;;;;;;;13.15;nan;99198.69;2105720;28;20580;-74
2021/06/16 00:24:58;;;;;;;29.70;21.87;;;;;;;13.12;nan;99119.75;2105664;28;20316;-75
2021/06/16 00:25:59;;;;;;;29.52;22.42;;;;;;;;;;2097328;28;20305;-75
2021/06/16 00:27:01;;;;;;;25.53;22.27;;;;;;;13.12;nan;99081.44;2105779;28;20221;-75
2021/06/16 00:28:02;;;;;;;29.45;21.50;;;;;;;13.14;nan;99186.41;2105650;28;20719;-74
2021/06/16 00:29:04;;;;;;;24.90;21.60;;;;;;;13.05;nan;99091.84;2105755;28;20213;-75
2021/06/16 00:30:06;;;;;;;28.98;22.55;;;;;;;13.16;nan;99103.84;2106314;28;20232;-75
2021/06/16 00:31:08;;;;;;;24.52;21.85;;;;;;;;;;2105747;28;20221;-75
2021/06/16 00:32:09;;;;;;;24.15;21.55;;;;;;;13.12;nan;99108.22;2096866;28;20230;-75
2021/06/16 00:33:10;;;;;;;25.80;21.30;;;;;;;;;;2105649;28;20231;-75
2021/06/16 00:34:11;;;;;;;29.65;22.02;;;;;;;13.08;nan;99092.00;2105554;28;20273;-75
2021/06/16 00:35:18;;;;;;;26.40;21.77;;;;;;;13.10;nan;99100.50;2097271;28;20268;-75
2021/06/16 00:36:19;;;;;;;26.13;22.30;;;;;;;13.06;nan;99195.19;2105676;28;20274;-74
2021/06/16 00:37:21;;;;;;;24.70;22.10;;;;;;;13.06;nan;99130.91;2105621;28;20221;-75
2021/06/16 00:38:21;;;;;;;27.52;22.08;;;;;;;13.04;nan;99112.47;2097254;28;20222;-75
2021/06/16 00:39:23;;;;;;;28.80;21.77;;;;;;;13.01;nan;99108.50;2096909;28;20225;-77
2021/06/16 00:40:26;;;;;;;29.88;21.58;;;;;;;12.99;nan;99185.69;2097095;28;20515;-75
2021/06/16 00:41:28;;;;;;;24.45;21.95;;;;;;;13.01;nan;99119.22;2097443;28;20308;-75
2021/06/16 00:42:29;;;;;;;33.10;22.92;;;;;;;13.12;nan;99125.09;2105392;28;20263;-75
2021/06/16 00:43:30;;;;;;;33.50;23.67;;;;;;;13.12;nan;99124.28;2105625;28;20217;-75
2021/06/16 00:44:31;;;;;;;30.80;22.67;;;;;;;13.12;nan;99130.47;2105664;28;20557;-75
2021/06/16 00:45:33;;;;;;;24.83;21.80;;;;;;;13.07;nan;99111.06;2106268;28;21272;-74
2021/06/16 00:46:34;;;;;;;30.20;22.55;;;;;;;13.07;nan;99111.84;2106398;28;20296;-75
2021/06/16 00:47:36;;;;;;;29.13;23.70;;;;;;;13.10;nan;99121.94;2106201;28;20229;-75
2021/06/16 00:48:37;;;;;;;34.40;23.50;;;;;;;13.12;nan;99086.78;2105475;28;20304;-75
2021/06/16 00:49:38;;;;;;;29.67;23.37;;;;;;;13.15;nan;99150.47;2096762;28;20222;-77
2021/06/16 00:50:41;;;;;;;31.27;23.08;;;;;;;13.15;nan;99118.31;2097278;28;20704;-75
2021/06/16 00:51:43;;;;;;;25.58;22.88;;;;;;;13.09;nan;99157.84;2105600;28;20312;-75
2021/06/16 00:52:44;;;;;;;25.73;23.13;;;;;;;13.10;nan;99132.63;2105394;28;20228;-75
2021/06/16 00:53:46;;;;;;;29.20;22.20;;;;;;;13.05;nan;99119.41;2105454;28;20316;-74
2021/06/16 00:54:46;;;;;;;28.60;23.25;;;;;;;13.10;nan;99115.78;2104232;28;20249;-74
2021/06/16 00:55:48;;;;;;;30.40;22.63;;;;;;;13.08;nan;99118.00;2105581;28;20225;-75
2021/06/16 00:56:49;;;;;;;29.35;23.13;;;;;;;13.05;nan;99198.97;2105473;28;20217;-75
2021/06/16 00:57:51;;;;;;;25.13;22.47;;;;;;;13.01;nan;99118.44;2105267;28;20240;-75
2021/06/16 00:58:52;;;;;;;26.00;23.25;;;;;;;13.03;nan;99121.63;2106244;28;20221;-74
2021/06/16 00:59:59;;;;;;;27.07;22.57;;;;;;;13.06;nan;99114.84;2105842;28;20312;-76
2021/06/16 01:01:03;;;;;;;29.45;23.90;;;;;;;13.07;nan;99116.41;2105427;28;20221;-74
2021/06/16 01:02:05;;;;;;;28.20;22.65;;;;;;;13.03;nan;99110.91;2105586;28;20275;-75
2021/06/16 01:03:10;;;;;;;29.00;24.63;;;;;;;13.07;nan;99105.69;2106154;28;20218;-74
2021/06/16 01:04:15;;;;;;;27.55;22.23;;;;;;;13.08;nan;99145.56;2105095;28;20217;-75
2021/06/16 01:05:17;;;;;;;29.65;23.25;;;;;;;13.13;nan;99115.19;2105524;28;20221;-75
2021/06/16 01:06:23;;;;;;;26.85;23.33;;;;;;;13.15;nan;99118.31;2105334;28;20324;-75
2021/06/16 01:07:26;;;;;;;30.88;22.30;;;;;;;13.13;nan;99125.91;2104981;28;20291;-75
2021/06/16 01:08:29;;;;;;;28.85;23.27;;;;;;;;;;2105312;28;20230;-75
2021/06/16 01:09:32;;;;;;;30.63;22.75;;;;;;;13.08;nan;99113.41;2097132;28;20217;-76
2021/06/16 01:10:36;;;;;;;25.08;22.08;;;;;;;13.06;nan;99110.28;2105561;28;20302;-75
2021/06/16 01:11:48;;;;;;;29.08;22.77;;;;;;;13.06;nan;99110.28;2106196;28;20564;-75
2021/06/16 01:12:57;;;;;;;30.17;22.52;;;;;;;13.02;nan;99104.72;2105073;28;20233;-75
2021/06/16 01:14:05;;;;;;;25.02;21.38;;;;;;;13.01;nan;99113.88;2105132;28;20236;-75
2021/06/16 01:15:09;;;;;;;23.90;21.40;;;;;;;12.97;nan;99101.41;2105252;28;20713;-75
2021/06/16 01:16:11;;;;;;;24.00;21.63;;;;;;;12.91;nan;99108.78;2096723;28;20228;-75
2021/06/16 01:17:17;;;;;;;25.50;22.05;;;;;;;12.87;nan;99107.06;2105490;28;20225;-75
2021/06/16 01:18:19;;;;;;;24.15;21.67;;;;;;;;;;2105313;28;20228;-75
2021/06/16 01:19:33;;;;;;;26.58;21.65;;;;;;;12.78;nan;99088.28;2097058;28;20237;-75
2021/06/16 01:20:35;;;;;;;25.98;22.20;;;;;;;12.72;nan;99105.56;2098601;28;20229;-75
2021/06/16 01:21:42;;;;;;;26.15;22.42;;;;;;;12.68;nan;99089.34;2105307;28;20224;-75
2021/06/16 01:22:45;;;;;;;24.10;21.60;;;;;;;12.65;nan;99089.16;2105734;28;20239;-75
2021/06/16 01:24:01;;;;;;;27.50;22.10;;;;;;;12.57;nan;99087.22;2105309;28;20223;-75
2021/06/16 01:25:05;;;;;;;28.85;22.58;;;;;;;12.56;nan;99091.00;2105026;28;20228;-75
2021/06/16 01:26:22;;;;;;;31.50;23.70;;;;;;;;;;2106030;28;20282;-75
2021/06/16 01:27:25;;;;;;;24.83;22.23;;;;;;;12.52;nan;99096.19;2104658;28;20686;-75
2021/06/16 01:28:30;;;;;;;29.40;22.20;;;;;;;12.48;nan;99084.50;2105376;28;20225;-75
2021/06/16 01:29:33;;;;;;;28.90;23.15;;;;;;;;;;2105105;28;20280;-75
2021/06/16 01:30:35;;;;;;;28.50;23.55;;;;;;;12.35;nan;99086.19;2105323;28;20217;-75
2021/06/16 01:31:37;;;;;;;29.20;23.38;;;;;;;;;;2105064;28;20231;-75
2021/06/16 01:32:38;;;;;;;28.17;22.92;;;;;;;12.36;nan;99098.47;2104843;28;20268;-75
2021/06/16 01:33:40;;;;;;;27.58;23.23;;;;;;;12.35;nan;99101.47;2104998;28;20311;-75
2021/06/16 01:34:42;;;;;;;26.52;23.60;;;;;;;12.35;nan;99096.91;2096866;28;20683;-75
2021/06/16 01:35:47;;;;;;;26.77;23.20;;;;;;;12.36;nan;99108.38;2105396;28;20229;-75
2021/06/16 01:36:50;;;;;;;29.92;23.75;;;;;;;12.33;nan;99093.72;2105079;28;20229;-75
2021/06/16 01:37:51;;;;;;;31.13;23.15;;;;;;;12.34;nan;99105.22;2105215;28;20775;-74
2021/06/16 01:38:53;;;;;;;29.53;23.40;;;;;;;;;;2105823;28;20649;-75
2021/06/16 01:39:56;;;;;;;30.85;23.90;;;;;;;12.34;nan;99100.66;2105600;28;20225;-75
2021/06/16 01:41:00;;;;;;;32.33;25.30;;;;;;;12.37;nan;99109.97;2106007;28;20234;-74
2021/06/16 01:42:07;;;;;;;29.15;23.95;;;;;;;12.32;nan;99167.06;2105025;28;20296;-74
2021/06/16 01:43:09;;;;;;;31.67;25.02;;;;;;;12.30;nan;99098.91;2104654;28;20221;-76
2021/06/16 01:44:12;;;;;;;32.85;24.30;;;;;;;12.32;nan;99176.97;2105261;28;20237;-75
2021/06/16 01:45:15;;;;;;;30.98;24.05;;;;;;;;;;2105044;28;20366;-74
2021/06/16 01:46:18;;;;;;;30.58;23.95;;;;;;;12.33;nan;99099.06;2097221;28;20376;-75
2021/06/16 01:47:20;;;;;;;25.00;22.23;;;;;;;12.32;nan;99177.75;2105353;28;20270;-74
2021/06/16 01:48:22;;;;;;;29.30;23.08;;;;;;;12.31;nan;99100.47;2104568;28;20275;-75
2021/06/16 01:49:25;;;;;;;34.17;23.13;;;;;;;;;;2096461;28;20229;-75
2021/06/16 01:50:27;;;;;;;27.42;24.10;;;;;;;12.31;nan;99121.88;2096828;28;20648;-75
2021/06/16 01:51:28;;;;;;;28.88;23.23;;;;;;;12.30;nan;99115.75;2096714;28;20230;-75
2021/06/16 01:52:32;;;;;;;32.13;23.95;;;;;;;12.27;nan;99078.13;2104549;28;20243;-74
2021/06/16 01:53:34;;;;;;;27.70;22.95;;;;;;;12.25;nan;99091.00;2113227;28;20220;-75
2021/06/16 01:54:36;;;;;;;28.58;23.98;;;;;;;12.25;nan;99097.16;2106024;28;20248;-74
2021/06/16 01:55:37;;;;;;;31.80;23.42;;;;;;;12.24;nan;99175.00;2105721;28;20232;-75
2021/06/16 01:56:39;;;;;;;26.92;23.58;;;;;;;;;;2105492;28;20216;-75
2021/06/16 01:57:43;;;;;;;27.98;23.42;;;;;;;;;;2104843;28;20717;-74
2021/06/16 01:58:46;;;;;;;29.58;23.42;;;;;;;12.31;nan;99095.91;2096963;28;20214;-74
2021/06/16 01:59:48;;;;;;;31.48;23.35;;;;;;;12.31;nan;99095.13;2105198;28;20224;-75
2021/06/16 02:00:54;;;;;;;25.45;22.67;;;;;;;12.29;nan;99191.75;2104879;28;20225;-74
2021/06/16 02:01:55;;;;;;;26.13;22.77;;;;;;;12.28;nan;99096.53;2104651;28;20593;-76
2021/06/16 02:02:57;;;;;;;26.17;21.93;;;;;;;12.28;nan;99096.53;2105181;28;20315;-75
2021/06/16 02:03:58;;;;;;;27.17;24.13;;;;;;;12.27;nan;99089.59;2104962;28;20236;-75
2021/06/16 02:05:00;;;;;;;27.23;23.43;;;;;;;12.24;nan;99106.25;2104958;28;20304;-75
2021/06/16 02:06:01;;;;;;;25.55;22.80;;;;;;;;;;2105052;28;20316;-75
2021/06/16 02:07:07;;;;;;;26.13;23.37;;;;;;;12.21;nan;99106.88;2104850;28;20229;-75
2021/06/16 02:08:11;;;;;;;25.83;23.10;;;;;;;12.15;nan;99076.78;2096739;28;20226;-77
2021/06/16 02:09:15;;;;;;;28.83;23.63;;;;;;;12.20;nan;99104.50;2096698;28;20257;-74
2021/06/16 02:10:19;;;;;;;34.08;24.00;;;;;;;22.40;100.00;57715.53;2104896;28;20580;-75
2021/06/16 02:11:21;;;;;;;31.23;24.35;;;;;;;;;;2105796;28;20304;-75
2021/06/16 02:12:22;;;;;;;29.65;22.73;;;;;;;12.18;nan;99107.50;2104932;28;20213;-75
2021/06/16 02:13:29;;;;;;;32.07;24.13;;;;;;;12.14;nan;99095.81;2096139;28;20301;-77
2021/06/16 02:14:30;;;;;;;28.27;23.35;;;;;;;12.19;nan;99108.28;2097109;28;20221;-75
2021/06/16 02:15:35;;;;;;;36.83;24.02;;;;;;;12.18;nan;99106.69;2096435;28;20225;-75
2021/06/16 02:16:39;;;;;;;32.35;23.70;;;;;;;12.21;nan;99100.72;2105023;28;20217;-74
2021/06/16 02:17:44;;;;;;;31.65;23.70;;;;;;;12.20;nan;99110.66;2104375;28;20236;-75
2021/06/16 02:18:47;;;;;;;27.58;24.20;;;;;;;12.18;nan;99112.84;2104957;28;20221;-75
2021/06/16 02:19:48;;;;;;;34.97;24.13;;;;;;;12.16;nan;99099.78;2104806;28;20217;-75
2021/06/16 02:20:50;;;;;;;30.13;24.38;;;;;;;12.18;nan;99197.66;2104827;28;20564;-75
2021/06/16 02:21:52;;;;;;;30.52;23.75;;;;;;;12.21;nan;99101.53;2104717;28;20304;-74
2021/06/16 02:22:54;;;;;;;34.15;23.75;;;;;;;12.23;nan;99088.63;2096142;28;20313;-75
2021/06/16 02:23:55;;;;;;;29.13;23.25;;;;;;;12.21;nan;99106.09;2096486;28;20296;-75
2021/06/16 02:24:57;;;;;;;34.00;24.13;;;;;;;12.21;nan;99084.69;2104837;28;20229;-75
2021/06/16 02:25:57;;;;;;;31.13;22.95;;;;;;;12.17;nan;99100.56;2105483;28;20232;-74
2021/06/16 02:26:59;;;;;;;28.93;22.60;;;;;;;12.16;nan;99104.31;2104611;28;20256;-74
2021/06/16 02:28:00;;;;;;;29.98;23.70;;;;;;;12.12;nan;99098.78;2104607;28;20221;-75
2021/06/16 02:29:04;;;;;;;31.67;23.53;;;;;;;12.10;nan;99110.91;2104720;28;20282;-75
2021/06/16 02:30:06;;;;;;;28.15;22.75;;;;;;;12.03;nan;99175.50;2096875;28;20708;-74
2021/06/16 02:31:08;;;;;;;29.60;22.67;;;;;;;12.03;nan;99202.25;2096479;28;20256;-75
2021/06/16 02:32:09;;;;;;;28.73;22.92;;;;;;;12.03;nan;99115.88;2095981;28;20222;-75
2021/06/16 02:33:11;;;;;;;27.98;24.10;;;;;;;12.02;nan;99109.75;2096325;28;20226;-75
2021/06/16 02:34:12;;;;;;;29.17;23.65;;;;;;;12.03;nan;99122.00;2096285;28;20237;-75
2021/06/16 02:35:15;;;;;;;30.37;24.20;;;;;;;12.01;nan;99167.00;2096168;28;20712;-75
2021/06/16 02:36:17;;;;;;;34.65;23.90;;;;;;;12.02;nan;99189.97;2104618;28;20270;-75
2021/06/16 02:37:19;;;;;;;29.70;23.27;;;;;;;12.02;nan;99125.78;2105479;28;20351;-74
2021/06/16 02:38:23;;;;;;;31.60;22.98;;;;;;;11.98;nan;99087.38;2104128;28;20228;-75
2021/06/16 02:39:28;;;;;;;28.85;24.15;;;;;;;11.95;nan;99097.88;2104420;28;20604;-76
2021/06/16 02:40:30;;;;;;;28.05;24.20;;;;;;;11.91;nan;99097.72;2104600;28;20763;-74
2021/06/16 02:41:31;;;;;;;29.05;24.23;;;;;;;11.89;nan;99121.25;2104616;28;20217;-74
2021/06/16 02:42:32;;;;;;;30.58;24.85;;;;;;;11.85;nan;99094.34;2105380;28;20248;-74
2021/06/16 02:43:34;;;;;;;29.33;23.80;;;;;;;11.82;nan;99094.97;2105461;28;20240;-75
2021/06/16 02:44:40;;;;;;;30.52;24.75;;;;;;;11.83;nan;99101.09;2105439;28;20229;-75
2021/06/16 02:45:42;;;;;;;28.92;24.85;;;;;;;;;;2104337;28;20225;-74
2021/06/16 02:46:48;;;;;;;30.38;24.85;;;;;;;11.78;nan;99098.50;2104658;28;20560;-75
2021/06/16 02:47:50;;;;;;;31.98;24.75;;;;;;;;;;2097053;28;20230;-74
2021/06/16 02:48:52;;;;;;;35.08;24.75;;;;;;;11.72;nan;99111.19;2104743;28;20666;-74
2021/06/16 02:49:57;;;;;;;29.65;22.95;;;;;;;11.72;nan;99100.50;2104872;28;20233;-75
2021/06/16 02:50:58;;;;;;;28.58;23.48;;;;;;;11.71;nan;99098.91;2104391;28;20237;-74
2021/06/16 02:52:00;;;;;;;31.15;25.05;;;;;;;;;;2096234;28;20689;-75
2021/06/16 02:53:07;;;;;;;32.08;23.70;;;;;;;11.59;nan;99069.28;2104735;28;20213;-75
2021/06/16 02:54:14;;;;;;;32.08;23.83;;;;;;;11.73;nan;99256.34;2104860;28;20228;-76
2021/06/16 02:55:15;;;;;;;27.75;23.95;;;;;;;11.77;nan;99113.75;2105235;28;20220;-75
2021/06/16 02:56:17;;;;;;;31.58;23.98;;;;;;;11.77;nan;99108.41;2105316;28;20217;-74
2021/06/16 02:57:20;;;;;;;28.35;23.98;;;;;;;11.79;nan;99121.47;2104414;28;20695;-75
2021/06/16 02:58:22;;;;;;;33.30;24.63;;;;;;;11.78;nan;99119.91;2104555;28;20711;-75
2021/06/16 02:59:25;;;;;;;30.83;24.60;;;;;;;;;;2095905;28;20222;-76
2021/06/16 03:00:29;;;;;;;29.33;24.25;;;;;;;11.84;nan;99119.50;2096383;28;20226;-75
2021/06/16 03:01:30;;;;;;;29.17;24.40;;;;;;;11.80;nan;99123.88;2104624;28;20653;-75
2021/06/16 03:02:33;;;;;;;33.03;25.55;;;;;;;11.81;nan;99226.25;2105377;28;20300;-75
2021/06/16 03:03:34;;;;;;;34.72;26.15;;;;;;;11.81;nan;99125.44;2104452;28;20221;-75
2021/06/16 03:04:36;;;;;;;29.20;24.63;;;;;;;11.80;nan;99042.88;2104477;28;20221;-75
2021/06/16 03:05:38;;;;;;;31.67;24.50;;;;;;;11.85;nan;99126.44;2104433;28;20258;-75
2021/06/16 03:06:41;;;;;;;33.67;24.65;;;;;;;11.86;nan;99111.97;2104030;28;20249;-76
2021/06/16 03:07:42;;;;;;;34.22;24.40;;;;;;;11.89;nan;99126.63;2104311;28;20225;-75
2021/06/16 03:08:44;;;;;;;38.08;24.25;;;;;;;;;;2096092;28;20675;-75
2021/06/16 03:09:46;;;;;;;32.80;24.85;;;;;;;11.89;nan;99115.91;2104348;28;20724;-75
2021/06/16 03:10:48;;;;;;;31.60;24.85;;;;;;;11.91;nan;99112.97;2104461;28;20213;-75
2021/06/16 03:11:50;;;;;;;30.88;23.90;;;;;;;11.88;nan;99216.72;2096169;28;20688;-75
2021/06/16 03:12:54;;;;;;;29.85;23.88;;;;;;;11.85;nan;99114.97;2104563;28;20274;-75
2021/06/16 03:13:55;;;;;;;30.60;24.40;;;;;;;11.88;nan;99125.03;2104037;28;20695;-75
2021/06/16 03:14:59;;;;;;;27.10;23.73;;;;;;;11.89;nan;99122.06;2096009;28;20230;-75
2021/06/16 03:16:01;;;;;;;30.10;23.13;;;;;;;11.88;nan;99125.81;2096062;28;20238;-74
2021/06/16 03:17:04;;;;;;;29.80;24.38;;;;;;;11.88;nan;99120.47;2096215;28;20225;-75
2021/06/16 03:18:06;;;;;;;25.90;22.92;;;;;;;11.81;nan;99215.53;2095889;28;20309;-74
2021/06/16 03:19:08;;;;;;;32.38;24.67;;;;;;;;;;2096071;28;20218;-74
2021/06/16 03:20:10;;;;;;;32.55;24.25;;;;;;;11.87;nan;99129.59;2104099;28;20252;-75
2021/06/16 03:21:13;;;;;;;28.88;23.75;;;;;;;11.89;nan;99057.88;2105139;28;20221;-75
2021/06/16 03:22:15;;;;;;;33.33;25.50;;;;;;;11.84;nan;99050.00;2105094;28;20228;-75
2021/06/16 03:23:17;;;;;;;32.90;23.77;;;;;;;11.82;nan;99207.25;2104551;28;20276;-75
2021/06/16 03:24:19;;;;;;;32.42;24.52;;;;;;;11.88;nan;99130.38;2096088;28;20226;-74
2021/06/16 03:25:21;;;;;;;33.60;24.63;;;;;;;11.89;nan;99127.41;2104519;28;20232;-75
2021/06/16 03:26:24;;;;;;;31.98;25.50;;;;;;;11.86;nan;99106.63;2104356;28;20217;-75
2021/06/16 03:27:26;;;;;;;33.20;24.73;;;;;;;11.92;nan;99119.88;2104010;28;20705;-75
2021/06/16 03:28:27;;;;;;;29.30;23.83;;;;;;;11.93;nan;99132.94;2104322;28;20225;-75
2021/06/16 03:29:30;;;;;;;37.53;25.60;;;;;;;11.95;nan;99236.91;2095941;28;20226;-75
2021/06/16 03:30:32;;;;;;;31.73;24.50;;;;;;;11.95;nan;99125.41;2104450;28;20245;-74
2021/06/16 03:31:35;;;;;;;31.80;24.17;;;;;;;11.97;nan;99133.91;2104366;28;20221;-75
2021/06/16 03:32:37;;;;;;;34.00;24.90;;;;;;;11.99;nan;99130.94;2104482;28;20221;-74
2021/06/16 03:33:40;;;;;;;36.35;25.27;;;;;;;;;;2103966;28;20221;-76
2021/06/16 03:34:40;;;;;;;30.77;24.55;;;;;;;12.02;nan;99135.69;2104481;28;20249;-75
2021/06/16 03:35:42;;;;;;;43.50;25.20;;;;;;;12.07;nan;99133.66;2105220;28;20222;-75
2021/06/16 03:36:46;;;;;;;29.85;25.23;;;;;;;12.10;nan;99143.00;2104228;28;20767;-75
2021/06/16 03:37:48;;;;;;;30.45;24.92;;;;;;;12.08;nan;99129.13;2096246;28;20226;-75
2021/06/16 03:38:50;;;;;;;35.05;24.50;;;;;;;;;;2104216;28;20228;-75
2021/06/16 03:39:51;;;;;;;38.53;25.85;;;;;;;12.13;nan;99142.38;2104162;28;20342;-75
2021/06/16 03:40:54;;;;;;;30.52;25.63;;;;;;;12.12;nan;99136.22;2104043;28;20287;-77
2021/06/16 03:41:55;;;;;;;32.25;25.30;;;;;;;12.16;nan;99142.56;2105103;28;20229;-75
2021/06/16 03:42:58;;;;;;;32.13;25.23;;;;;;;12.20;nan;99132.03;2105106;28;20239;-75
2021/06/16 03:44:00;;;;;;;33.17;24.95;;;;;;;12.22;nan;99140.56;2104946;28;20273;-75
2021/06/16 03:45:03;;;;;;;34.15;25.33;;;;;;;;;;2104483;28;20237;-75
2021/06/16 03:46:05;;;;;;;40.53;25.77;;;;;;;12.22;nan;99310.97;2096188;28;20218;-75
2021/06/16 03:47:09;;;;;;;37.20;25.63;;;;;;;12.24;nan;99234.66;2095993;28;20225;-74
2021/06/16 03:48:10;;;;;;;32.22;25.08;;;;;;;12.29;nan;99135.56;2103919;28;20225;-75
2021/06/16 03:49:14;;;;;;;36.10;25.33;;;;;;;12.30;nan;99174.59;2105142;28;20672;-75
2021/06/16 03:50:16;;;;;;;32.50;25.13;;;;;;;12.32;nan;99092.13;2104271;28;20217;-75
2021/06/16 03:51:19;;;;;;;35.13;25.45;;;;;;;12.36;nan;99125.22;2096046;28;20253;-75
2021/06/16 03:52:21;;;;;;;31.33;24.88;;;;;;;12.38;nan;99117.69;2104404;28;20221;-74
2021/06/16 03:53:22;;;;;;;36.40;25.45;;;;;;;;;;2104109;28;20217;-74
2021/06/16 03:54:24;;;;;;;30.80;24.40;;;;;;;12.43;nan;99152.34;2103907;28;20221;-76
2021/06/16 03:55:26;;;;;;;28.90;24.48;;;;;;;12.43;nan;99163.06;2104915;28;20304;-75
2021/06/16 03:56:27;;;;;;;29.95;23.88;;;;;;;12.50;nan;99173.31;2104315;28;20221;-75
2021/06/16 03:57:29;;;;;;;30.17;23.73;;;;;;;12.50;nan;99161.81;2104342;28;20707;-75
2021/06/16 03:58:30;;;;;;;33.58;24.60;;;;;;;12.51;nan;99168.75;2105080;28;20244;-74
2021/06/16 03:59:33;;;;;;;32.03;23.80;;;;;;;12.53;nan;99123.75;2105038;28;20316;-75
2021/06/16 04:00:33;;;;;;;38.80;24.30;;;;;;;12.55;nan;99159.03;2104209;28;20456;-75
2021/06/16 04:01:38;;;;;;;31.33;23.83;;;;;;;12.58;nan;99169.09;2095797;28;20313;-74
2021/06/16 04:02:41;;;;;;;31.35;23.10;;;;;;;12.63;nan;99171.66;2103970;28;20225;-75
2021/06/16 04:03:43;;;;;;;27.85;23.38;;;;;;;12.67;nan;99151.19;2104341;28;20274;-75
2021/06/16 04:04:43;;;;;;;31.65;24.45;;;;;;;;;;2104145;28;20255;-75
2021/06/16 04:05:45;;;;;;;31.33;24.25;;;;;;;12.71;nan;99200.38;2104838;28;20551;-75
2021/06/16 04:06:46;;;;;;;34.17;25.60;;;;;;;12.76;nan;99153.91;2104982;28;20218;-75
2021/06/16 04:07:48;;;;;;;28.92;24.23;;;;;;;;;;2104910;28;20664;-75
2021/06/16 04:08:50;;;;;;;25.52;22.45;;;;;;;12.81;nan;99173.34;2104894;28;20630;-74
2021/06/16 04:09:53;;;;;;;24.50;21.67;;;;;;;12.84;nan;99171.91;2104874;28;20259;-75
2021/06/16 04:10:55;;;;;;;28.60;21.95;;;;;;;12.88;nan;99184.41;2104663;28;20229;-75
2021/06/16 04:11:58;;;;;;;27.00;23.05;;;;;;;12.91;nan;99167.72;2104077;28;20615;-75
2021/06/16 04:13:00;;;;;;;26.00;21.70;;;;;;;12.95;nan;99163.34;2104256;28;20218;-74
2021/06/16 04:14:02;;;;;;;27.40;22.02;;;;;;;12.97;nan;99160.34;2103991;28;20232;-74
2021/06/16 04:15:03;;;;;;;30.95;22.25;;;;;;;;;;2104166;28;20750;-75
2021/06/16 04:16:06;;;;;;;27.20;22.30;;;;;;;13.01;nan;99177.34;2104044;28;20225;-75
2021/06/16 04:17:07;;;;;;;27.90;21.92;;;;;;;12.98;nan;99243.06;2095883;28;20222;-74
2021/06/16 04:18:10;;;;;;;24.93;22.20;;;;;;;;;;2095475;28;20672;-76
2021/06/16 04:19:11;;;;;;;25.00;21.30;;;;;;;13.11;nan;99187.00;2104375;28;20229;-75
2021/06/16 04:20:14;;;;;;;29.10;22.70;;;;;;;13.13;nan;99254.47;2104876;28;20311;-75
2021/06/16 04:21:15;;;;;;;31.02;21.98;;;;;;;13.18;nan;99182.00;2104143;28;20213;-74
2021/06/16 04:22:17;;;;;;;28.27;21.23;;;;;;;13.16;nan;99237.78;2095714;28;20222;-75
2021/06/16 04:23:18;;;;;;;26.38;22.98;;;;;;;13.23;nan;99200.66;2104220;28;20695;-75
2021/06/16 04:24:19;;;;;;;27.35;22.45;;;;;;;13.22;nan;99247.31;2105023;28;20224;-75
2021/06/16 04:25:23;;;;;;;27.23;21.87;;;;;;;13.25;nan;99199.22;2104253;28;20221;-74
2021/06/16 04:26:24;;;;;;;25.83;23.02;;;;;;;13.25;nan;99252.03;2103888;28;20575;-74
2021/06/16 04:27:26;;;;;;;24.70;22.08;;;;;;;13.31;nan;99181.13;2104007;28;20229;-75
2021/06/16 04:28:27;;;;;;;27.10;22.90;;;;;;;13.34;nan;99201.94;2095806;28;20597;-75
2021/06/16 04:29:29;;;;;;;27.30;22.67;;;;;;;13.36;nan;99183.66;2095728;28;20230;-75
2021/06/16 04:30:30;;;;;;;25.52;22.85;;;;;;;13.38;nan;99192.19;2105609;28;20228;-75
2021/06/16 04:31:32;;;;;;;28.13;22.77;;;;;;;13.38;nan;99170.75;2106439;28;20222;-74
2021/06/16 04:32:33;;;;;;;24.63;22.00;;;;;;;13.41;nan;99170.13;2105598;28;20224;-75
2021/06/16 04:33:36;;;;;;;27.80;22.10;;;;;;;13.47;nan;99184.97;2097143;28;20229;-74
2021/06/16 04:34:37;;;;;;;27.30;22.45;;;;;;;;;;2105624;28;20229;-75
2021/06/16 04:35:39;;;;;;;28.52;22.85;;;;;;;13.53;nan;99189.06;2106020;28;20249;-75
2021/06/16 04:36:40;;;;;;;30.58;23.27;;;;;;;13.56;nan;99187.69;2106224;28;20225;-75
2021/06/16 04:37:42;;;;;;;25.53;22.67;;;;;;;13.50;nan;99254.03;2105366;28;20221;-75
2021/06/16 04:38:43;;;;;;;25.35;22.75;;;;;;;13.62;nan;99223.94;2105682;28;20628;-75
2021/06/16 04:39:45;;;;;;;27.33;22.67;;;;;;;13.65;nan;99207.25;2105657;28;20633;-75
2021/06/16 04:40:45;;;;;;;25.73;22.10;;;;;;;;;;2105548;28;20632;-74
2021/06/16 04:41:47;;;;;;;24.77;22.10;;;;;;;13.69;nan;99202.03;2105692;28;20221;-75
2021/06/16 04:42:48;;;;;;;26.33;22.20;;;;;;;13.73;nan;99160.09;2106256;28;20228;-74
2021/06/16 04:43:50;;;;;;;27.23;22.53;;;;;;;13.75;nan;99185.50;2106183;28;20308;-75
2021/06/16 04:44:51;;;;;;;28.23;23.60;;;;;;;13.75;nan;99239.13;2105605;28;20225;-75
2021/06/16 04:45:53;;;;;;;26.27;22.47;;;;;;;13.82;nan;99190.41;2105640;28;20229;-75
2021/06/16 04:46:53;;;;;;;26.08;22.30;;;;;;;13.83;nan;99198.13;2105044;28;20699;-75
2021/06/16 04:47:55;;;;;;;26.67;23.27;;;;;;;13.84;nan;99182.81;2105483;28;20679;-75
2021/06/16 04:48:58;;;;;;;25.83;22.00;;;;;;;13.88;nan;99183.75;2105438;28;20233;-75
2021/06/16 04:49:59;;;;;;;25.50;22.83;;;;;;;13.91;nan;99188.50;2105469;28;20252;-76
2021/06/16 04:51:00;;;;;;;26.20;22.15;;;;;;;13.94;nan;99198.59;2104544;28;20675;-74
2021/06/16 04:52:02;;;;;;;27.23;22.17;;;;;;;;;;2096770;28;20545;-75
2021/06/16 04:53:03;;;;;;;25.20;22.52;;;;;;;14.01;nan;99236.50;2097190;28;20222;-74
2021/06/16 04:54:10;;;;;;;24.73;22.23;;;;;;;14.05;nan;99258.88;2105610;28;20213;-75
2021/06/16 04:55:11;;;;;;;23.40;21.13;;;;;;;;;;2105965;28;20559;-75
2021/06/16 04:56:13;;;;;;;24.95;21.05;;;;;;;14.17;nan;99196.56;2106023;28;20239;-75
2021/06/16 04:57:14;;;;;;;23.52;21.13;;;;;;;14.24;nan;99196.06;2105413;28;20671;-75
2021/06/16 04:58:16;;;;;;;24.23;21.30;;;;;;;;;;2105528;28;20620;-74
2021/06/16 04:59:16;;;;;;;27.13;22.33;;;;;;;14.30;nan;99205.56;2104839;28;20217;-75
2021/06/16 05:00:22;;;;;;;23.63;21.27;;;;;;;14.36;nan;99193.56;2097256;28;20245;-75
2021/06/16 05:01:22;;;;;;;23.33;20.92;;;;;;;14.35;nan;99261.78;2097617;28;20755;-75